»·PEaware :: SWA1290 KSLC-KPDX

SWA1290 :: KSLC-KPDX

FLIGHT INFORMATION

Flight Status: Arrived
Operator:
Southwest Airlines
More flights by this operator :: More flights under this callsign
Pilot: Sergei F. (8485)
Aircraft: AIRBUS A320
(A320)
More flights by this aircraft type
Origin: KSLC Salt Lake City Intl
United States
Destination: KPDX Portland Intl
United States
More flights between these airports :: More routes between these airports
Route: +CGULL1 TWF BROPH JOTBA HHOOD4
File this flight plan on PilotEdge
Remarks:
Altitude:
(Current/Filed)
38,000ft
Speed:
(Current/Filed)
400kts
Departed: 09-Nov-19 06:25 PM
Arrived: 09-Nov-19 08:16 PM
Distance/Time
Traveled:
546nm/1:51
Distance/Time
To Go:
Arrived

Flight Plot

Page will automatically refresh every two minutes.

Flight plan parsing failed; only flown route is shown


Map Options




Map Legend


Flown Route
Filed Route
Departure Airport
Arrival Airport
Navaid (VOR, NDB)
Fix

Horizontal Profiles

Position Reports

Time Latitude Longitude Heading Altitude Ground
Speed
09-Nov-19 18:06 40.788195 -111.977959 267 4225ft 0kts
09-Nov-19 18:07 40.788195 -111.977959 267 4225ft 0kts
09-Nov-19 18:08 40.788195 -111.977959 267 4225ft 0kts
09-Nov-19 18:09 40.788201 -111.977777 267 4225ft 1kts
09-Nov-19 18:10 40.788122 -111.977083 308 4225ft 2kts
09-Nov-19 18:11 40.787739 -111.976827 355 4225ft 0kts
09-Nov-19 18:12 40.787740 -111.976827 355 4225ft 0kts
09-Nov-19 18:13 40.788383 -111.976894 355 4225ft 6kts
09-Nov-19 18:14 40.790943 -111.977192 355 4225ft 9kts
09-Nov-19 18:15 40.793505 -111.977499 355 4225ft 8kts
09-Nov-19 18:16 40.797005 -111.977899 354 4225ft 17kts
09-Nov-19 18:17 40.801803 -111.978456 354 4228ft 18kts
09-Nov-19 18:18 40.806151 -111.978957 354 4228ft 7kts
09-Nov-19 18:19 40.806650 -111.979015 355 4228ft 0kts
09-Nov-19 18:20 40.807300 -111.978741 54 4228ft 3kts
09-Nov-19 18:21 40.807335 -111.978664 61 4228ft 0kts
09-Nov-19 18:22 40.807335 -111.978664 61 4228ft 0kts
09-Nov-19 18:23 40.807404 -111.977593 112 4228ft 6kts
09-Nov-19 18:24 40.802867 -111.976400 175 4231ft 77kts
09-Nov-19 18:25 40.762859 -111.985759 245 5985ft 175kts
09-Nov-19 18:26 40.785669 -112.050534 307 7956ft 243kts
09-Nov-19 18:27 40.828753 -112.124856 308 9989ft 259kts
09-Nov-19 18:28 40.886429 -112.196822 317 11223ft 321kts
09-Nov-19 18:29 40.953047 -112.279278 316 14049ft 335kts
09-Nov-19 18:30 41.021314 -112.364804 315 16720ft 343kts
09-Nov-19 18:31 41.094418 -112.446545 325 19146ft 351kts
09-Nov-19 18:32 41.175724 -112.516116 321 20386ft 379kts
09-Nov-19 18:33 41.261081 -112.602663 319 21949ft 391kts
09-Nov-19 18:34 41.335678 -112.704048 309 23497ft 395kts
09-Nov-19 18:35 41.410199 -112.813306 308 24963ft 402kts
09-Nov-19 18:36 41.483504 -112.925689 308 26320ft 407kts
09-Nov-19 18:37 41.557853 -113.040052 308 27797ft 406kts
09-Nov-19 18:38 41.631579 -113.153512 308 29084ft 408kts
09-Nov-19 18:39 41.705455 -113.267707 308 30283ft 410kts
09-Nov-19 18:40 41.779969 -113.383330 308 31389ft 411kts
09-Nov-19 18:41 41.853717 -113.498221 307 32540ft 408kts
09-Nov-19 18:42 41.927084 -113.612965 308 33678ft 403kts
09-Nov-19 18:43 41.999372 -113.726457 307 34691ft 400kts
09-Nov-19 18:44 42.071221 -113.839673 307 35573ft 399kts
09-Nov-19 18:45 42.141757 -113.951255 307 36389ft 397kts
09-Nov-19 18:46 42.212762 -114.063676 307 37177ft 395kts
09-Nov-19 18:47 42.283543 -114.175902 307 37961ft 391kts
09-Nov-19 18:48 42.354108 -114.288218 307 38254ft 398kts
09-Nov-19 18:49 42.426022 -114.403095 307 38253ft 406kts
09-Nov-19 18:50 42.499255 -114.520365 307 38254ft 407kts
09-Nov-19 18:51 42.572654 -114.637378 307 38252ft 407kts
09-Nov-19 18:52 42.644544 -114.752494 307 38253ft 408kts
09-Nov-19 18:53 42.717473 -114.870758 304 38252ft 407kts
09-Nov-19 18:54 42.779257 -114.997886 301 38244ft 406kts
09-Nov-19 18:55 42.840344 -115.126840 302 38213ft 407kts
09-Nov-19 18:56 42.901411 -115.256308 302 38207ft 409kts
09-Nov-19 18:57 42.962603 -115.386636 302 38238ft 405kts
09-Nov-19 18:58 43.021647 -115.512966 302 38227ft 393kts
09-Nov-19 18:59 43.079880 -115.638036 301 38225ft 390kts
09-Nov-19 19:00 43.134364 -115.755522 301 38237ft 391kts
09-Nov-19 19:01 43.192477 -115.881382 301 38246ft 392kts
09-Nov-19 19:02 43.250550 -116.007696 301 38238ft 391kts
09-Nov-19 19:03 43.308068 -116.133344 301 38225ft 391kts
09-Nov-19 19:04 43.365629 -116.259623 301 38234ft 391kts
09-Nov-19 19:05 43.423139 -116.386337 301 38244ft 390kts
09-Nov-19 19:06 43.479835 -116.511798 301 38243ft 390kts
09-Nov-19 19:07 43.534885 -116.634136 300 38239ft 390kts
09-Nov-19 19:08 43.589289 -116.755538 300 38246ft 391kts
09-Nov-19 19:09 43.644015 -116.878178 300 38251ft 391kts
09-Nov-19 19:10 43.698267 -117.000271 300 38262ft 391kts
09-Nov-19 19:11 43.752506 -117.122843 300 38268ft 391kts
09-Nov-19 19:12 43.807827 -117.248401 300 38267ft 392kts
09-Nov-19 19:13 43.862789 -117.373686 300 38271ft 391kts
09-Nov-19 19:14 43.917931 -117.499932 300 38270ft 391kts
09-Nov-19 19:15 43.973436 -117.627566 300 38267ft 391kts
09-Nov-19 19:16 44.026550 -117.750230 299 38272ft 392kts
09-Nov-19 19:17 44.079002 -117.871884 299 38271ft 392kts
09-Nov-19 19:18 44.129214 -117.988833 299 38261ft 392kts
09-Nov-19 19:19 44.179077 -118.105438 299 38257ft 392kts
09-Nov-19 19:20 44.229958 -118.224913 299 38259ft 392kts
09-Nov-19 19:21 44.279653 -118.342090 299 38261ft 391kts
09-Nov-19 19:22 44.334707 -118.472469 299 38257ft 391kts
09-Nov-19 19:23 44.385264 -118.592726 299 38252ft 391kts
09-Nov-19 19:24 44.435074 -118.711699 299 38261ft 392kts
09-Nov-19 19:25 44.484004 -118.829058 298 38267ft 392kts
09-Nov-19 19:26 44.536143 -118.954651 297 38236ft 395kts
09-Nov-19 19:27 44.590631 -119.086495 297 38231ft 400kts
09-Nov-19 19:28 44.643016 -119.213846 297 38271ft 403kts
09-Nov-19 19:29 44.692709 -119.335187 297 38295ft 404kts
09-Nov-19 19:30 44.742885 -119.458148 297 38288ft 404kts
09-Nov-19 19:31 44.792367 -119.579726 297 38272ft 403kts
09-Nov-19 19:32 44.839304 -119.695953 296 38265ft 403kts
09-Nov-19 19:33 44.888047 -119.817085 296 38261ft 403kts
09-Nov-19 19:34 44.942799 -119.953745 296 38236ft 402kts
09-Nov-19 19:35 44.993115 -120.079915 296 38228ft 401kts
09-Nov-19 19:36 45.042472 -120.204255 296 37343ft 388kts
09-Nov-19 19:38 45.091493 -120.328289 296 35245ft 382kts
09-Nov-19 19:39 45.139116 -120.449279 296 33001ft 378kts
09-Nov-19 19:40 45.186396 -120.570400 296 30644ft 377kts
09-Nov-19 19:41 45.233651 -120.692901 295 28112ft 379kts
09-Nov-19 19:42 45.281467 -120.817320 296 25438ft 390kts
09-Nov-19 19:43 45.331481 -120.948050 296 23261ft 391kts
09-Nov-19 19:44 45.379536 -121.074354 296 21194ft 383kts
09-Nov-19 19:45 45.425136 -121.196086 291 19521ft 368kts
09-Nov-19 19:46 45.451076 -121.317171 284 18830ft 319kts
09-Nov-19 19:47 45.472172 -121.424548 284 18154ft 291kts
09-Nov-19 19:48 45.491183 -121.520410 284 16918ft 288kts
09-Nov-19 19:49 45.508341 -121.607349 284 15732ft 284kts
09-Nov-19 19:50 45.524491 -121.689641 284 15033ft 269kts
09-Nov-19 19:51 45.531676 -121.776311 272 14322ft 256kts
09-Nov-19 19:52 45.534790 -121.862492 272 13474ft 253kts
09-Nov-19 19:53 45.537775 -121.946109 274 12646ft 251kts
09-Nov-19 19:54 45.552120 -122.023864 285 12050ft 269kts
09-Nov-19 19:55 45.569814 -122.108704 286 11276ft 263kts
09-Nov-19 19:55 45.583577 -122.174991 286 10429ft 257kts
09-Nov-19 19:57 45.600748 -122.257872 287 9379ft 250kts
09-Nov-19 19:58 45.614624 -122.325076 287 8525ft 245kts
09-Nov-19 19:58 45.625383 -122.377350 287 7743ft 248kts
09-Nov-19 19:59 45.638885 -122.443040 287 7102ft 237kts
09-Nov-19 20:01 45.661187 -122.513795 298 6180ft 235kts
09-Nov-19 20:01 45.678836 -122.562877 298 5495ft 234kts
09-Nov-19 20:02 45.698775 -122.618439 298 5157ft 214kts
09-Nov-19 20:04 45.721073 -122.680017 298 4434ft 211kts
09-Nov-19 20:04 45.738977 -122.729472 298 3824ft 210kts
09-Nov-19 20:05 45.762277 -122.794102 298 3063ft 208kts
09-Nov-19 20:06 45.786137 -122.867833 295 3017ft 209kts
09-Nov-19 20:07 45.777222 -122.935415 195 3019ft 218kts
09-Nov-19 20:08 45.723537 -122.901825 146 3019ft 196kts
09-Nov-19 20:09 45.686066 -122.853177 119 3016ft 179kts
09-Nov-19 20:10 45.663186 -122.795573 118 2740ft 173kts
09-Nov-19 20:11 45.644216 -122.747068 117 1979ft 139kts
09-Nov-19 20:12 45.625186 -122.698395 118 1249ft 137kts
09-Nov-19 20:13 45.606018 -122.649391 118 500ft 135kts
09-Nov-19 20:14 45.589568 -122.607170 118 24ft 72kts
09-Nov-19 20:15 45.588153 -122.599519 39 25ft 4kts
09-Nov-19 20:16 45.589335 -122.599055 40 26ft 2kts
09-Nov-19 20:17 45.589450 -122.598915 39 26ft 0kts
09-Nov-19 20:18 45.589450 -122.598915 40 26ft 0kts
09-Nov-19 20:19 45.589450 -122.598915 40 26ft 0kts

Navigation Log

Ident Type
Flight plan parsing failed, navigation log unavailable